Time;durP1;ratioP1;P1;durP2;ratioP2;P2;SDS_P1;SDS_P2;PMS_P1;PMS_P2;Temp;Humidity;BMP_temperature;BMP_pressure;BME280_temperature;BME280_humidity;BME280_pressure;Samples;Min_cycle;Max_cycle;Signal;HPM_P1;HPM_P2
2023/03/02 00:00:54;;;;;;;6.53;5.93;;;17.10;57.10;;;;;;5088982;28;20404;-78
2023/03/02 00:03:20;;;;;;;7.10;6.35;;;17.10;57.30;;;;;;5086348;28;20040;-78
2023/03/02 00:05:48;;;;;;;6.32;5.75;;;17.10;57.20;;;;;;5073731;28;20028;-79
2023/03/02 00:08:15;;;;;;;6.22;5.70;;;17.10;57.30;;;;;;5063668;28;20032;-79
2023/03/02 00:10:40;;;;;;;7.05;6.00;;;17.10;57.40;;;;;;5066215;28;20074;-79
2023/03/02 00:13:06;;;;;;;6.13;5.55;;;17.00;57.40;;;;;;5083490;28;20028;-78
2023/03/02 00:15:32;;;;;;;6.97;5.90;;;17.00;57.30;;;;;;5081583;28;20021;-79
2023/03/02 00:17:57;;;;;;;6.47;5.88;;;17.00;57.40;;;;;;5078209;28;20055;-79
2023/03/02 00:20:23;;;;;;;6.82;5.70;;;17.00;57.50;;;;;;5062983;28;20030;-79
2023/03/02 00:22:49;;;;;;;7.95;5.25;;;17.00;57.50;;;;;;5083688;28;20044;-79
2023/03/02 00:25:14;;;;;;;6.72;6.13;;;17.00;57.30;;;;;;5079540;28;20029;-79
2023/03/02 00:27:40;;;;;;;6.22;5.32;;;16.90;57.50;;;;;;5088419;28;20032;-79
2023/03/02 00:30:06;;;;;;;5.60;5.10;;;16.90;57.50;;;;;;5085613;28;20492;-78
2023/03/02 00:32:33;;;;;;;6.70;5.90;;;16.90;57.50;;;;;;5092396;28;20032;-79
2023/03/02 00:34:58;;;;;;;5.13;4.63;;;16.90;57.60;;;;;;5089605;28;20031;-79
2023/03/02 00:37:27;;;;;;;5.57;5.07;;;16.90;57.60;;;;;;5061846;28;20028;-79
2023/03/02 00:39:52;;;;;;;5.82;5.32;;;16.80;57.70;;;;;;5085412;28;20035;-79
2023/03/02 00:42:18;;;;;;;5.30;4.85;;;16.80;57.60;;;;;;5086685;28;20032;-79
2023/03/02 00:44:44;;;;;;;6.60;5.00;;;16.80;57.80;;;;;;5087405;28;20040;-78
2023/03/02 00:47:09;;;;;;;5.45;4.95;;;16.90;57.70;;;;;;5072225;28;20032;-79
2023/03/02 00:49:35;;;;;;;5.13;4.72;;;16.80;57.70;;;;;;5082633;28;20115;-78
2023/03/02 00:52:02;;;;;;;5.25;4.85;;;16.80;57.60;;;;;;5089626;28;20039;-78
2023/03/02 00:54:27;;;;;;;5.13;4.72;;;16.80;57.70;;;;;;5084023;28;20111;-78
2023/03/02 00:56:53;;;;;;;5.43;4.93;;;16.80;57.80;;;;;;5084248;28;20082;-78
2023/03/02 00:59:25;;;;;;;5.18;4.80;;;16.80;57.60;;;;;;5069421;28;20070;-78
2023/03/02 01:02:00;;;;;;;5.00;4.60;;;16.80;57.70;;;;;;5093842;28;20032;-78
2023/03/02 01:04:28;;;;;;;4.68;4.35;;;16.80;57.60;;;;;;5087794;28;20531;-78
2023/03/02 01:06:57;;;;;;;5.15;4.75;;;16.70;57.60;;;;;;5088358;28;20058;-78
2023/03/02 01:09:23;;;;;;;5.22;4.70;;;16.70;57.60;;;;;;5085387;28;20480;-78
2023/03/02 01:11:49;;;;;;;4.80;4.40;;;16.70;57.60;;;;;;5090778;28;20032;-79
2023/03/02 01:14:14;;;;;;;4.72;4.43;;;16.70;57.60;;;;;;5086727;28;20059;-78
2023/03/02 01:16:40;;;;;;;5.20;4.80;;;16.70;57.60;;;;;;5086013;28;20506;-78
2023/03/02 01:19:05;;;;;;;5.00;4.60;;;16.70;57.60;;;;;;5082373;28;20025;-78
2023/03/02 01:21:31;;;;;;;4.63;4.32;;;16.70;57.40;;;;;;5092096;28;20027;-78
2023/03/02 01:23:57;;;;;;;4.88;4.47;;;16.70;57.40;;;;;;5086202;28;20060;-79
2023/03/02 01:26:22;;;;;;;4.32;4.03;;;16.70;57.50;;;;;;5068674;28;20488;-78
2023/03/02 01:28:49;;;;;;;4.75;4.35;;;16.60;57.50;;;;;;5082935;28;20554;-78
2023/03/02 01:31:15;;;;;;;4.55;4.20;;;16.60;57.60;;;;;;5086617;28;20067;-78
2023/03/02 01:33:40;;;;;;;4.35;4.05;;;16.60;57.50;;;;;;5085406;28;20056;-78
2023/03/02 01:36:06;;;;;;;4.97;4.50;;;16.60;57.50;;;;;;5087652;28;20047;-78
2023/03/02 01:38:32;;;;;;;3.78;3.50;;;16.60;57.50;;;;;;5066390;28;20055;-78
2023/03/02 01:40:58;;;;;;;3.72;3.53;;;16.50;58.20;;;;;;5080302;28;20501;-78
2023/03/02 01:43:23;;;;;;;4.10;3.80;;;16.60;57.50;;;;;;5088986;28;20035;-78
2023/03/02 01:45:54;;;;;;;3.72;3.53;;;16.50;57.40;;;;;;5067468;28;20067;-78
2023/03/02 01:48:32;;;;;;;4.18;3.88;;;16.50;57.40;;;;;;5085716;28;20049;-78
2023/03/02 01:50:58;;;;;;;4.30;4.00;;;16.50;57.50;;;;;;5046803;28;20032;-78
2023/03/02 01:53:25;;;;;;;3.65;3.45;;;16.50;57.30;;;;;;5044455;28;20081;-78
2023/03/02 01:55:50;;;;;;;4.10;3.80;;;16.50;57.40;;;;;;5065902;28;20056;-78
2023/03/02 01:58:16;;;;;;;3.38;3.17;;;16.50;57.40;;;;;;5062872;28;20056;-79
2023/03/02 02:00:42;;;;;;;4.10;3.80;;;16.50;57.40;;;;;;5053917;28;20028;-78
2023/03/02 02:03:19;;;;;;;4.15;3.90;;;16.50;57.20;;;;;;5063107;28;20077;-78
2023/03/02 02:05:47;;;;;;;4.18;3.83;;;16.50;57.20;;;;;;5060084;28;20488;-78
2023/03/02 02:08:12;;;;;;;4.30;3.90;;;16.50;57.30;;;;;;5052959;28;20503;-78
2023/03/02 02:10:38;;;;;;;4.47;4.07;;;16.40;57.30;;;;;;5068106;28;20024;-78
2023/03/02 02:13:07;;;;;;;3.60;3.40;;;16.40;57.40;;;;;;5089488;28;20073;-78
2023/03/02 02:15:33;;;;;;;3.70;3.40;;;16.50;57.20;;;;;;5067702;28;20047;-78
2023/03/02 02:17:59;;;;;;;3.33;3.13;;;16.50;57.20;;;;;;5086026;28;20044;-78
2023/03/02 02:20:54;;;;;;;3.28;3.08;;;16.40;57.30;;;;;;5082436;28;20031;-79
2023/03/02 02:23:26;;;;;;;;;;;16.40;57.30;;;;;;5074161;28;20036;-79
2023/03/02 02:25:52;;;;;;;3.75;3.45;;;16.40;57.20;;;;;;5061418;28;20273;-78
2023/03/02 02:28:42;;;;;;;3.20;3.00;;;16.40;57.20;;;;;;5084655;28;20519;-79
2023/03/02 02:31:25;;;;;;;3.88;3.58;;;16.40;57.20;;;;;;5067061;28;20036;-78
2023/03/02 02:33:54;;;;;;;3.08;2.88;;;16.40;57.30;;;;;;5046936;28;20412;-78
2023/03/02 02:36:22;;;;;;;3.35;3.08;;;16.40;57.30;;;;;;5068707;28;20024;-78
2023/03/02 02:38:50;;;;;;;3.80;3.50;;;16.40;57.20;;;;;;5047300;28;20029;-78
2023/03/02 02:41:25;;;;;;;3.10;2.90;;;16.30;57.20;;;;;;5061969;28;20024;-78
2023/03/02 02:43:50;;;;;;;3.47;3.28;;;16.40;57.30;;;;;;5068114;28;20463;-79
2023/03/02 02:46:16;;;;;;;3.03;2.83;;;16.40;57.40;;;;;;5064450;28;20115;-79
2023/03/02 02:48:41;;;;;;;3.60;3.30;;;16.30;57.40;;;;;;5076631;28;20058;-78
2023/03/02 02:51:08;;;;;;;3.17;2.97;;;16.30;57.30;;;;;;5068260;28;20040;-78
2023/03/02 02:53:41;;;;;;;3.78;3.47;;;16.30;57.30;;;;;;5054018;28;20504;-79
2023/03/02 02:56:07;;;;;;;3.13;2.92;;;16.40;57.10;;;;;;5085983;28;20519;-79
2023/03/02 02:58:44;;;;;;;3.50;3.30;;;16.30;57.40;;;;;;5051615;28;20036;-78
2023/03/02 03:01:14;;;;;;;3.40;3.10;;;16.30;57.40;;;;;;5047750;28;20027;-78
2023/03/02 03:03:40;;;;;;;3.42;3.13;;;16.40;57.40;;;;;;5062640;28;20032;-78
2023/03/02 03:06:11;;;;;;;3.28;3.08;;;16.40;57.40;;;;;;5063002;28;20031;-78
2023/03/02 03:08:40;;;;;;;3.17;2.97;;;16.30;57.20;;;;;;5061176;28;20047;-78
2023/03/02 03:11:06;;;;;;;3.90;3.60;;;16.30;57.30;;;;;;5080902;28;20036;-78
2023/03/02 03:13:32;;;;;;;3.58;3.28;;;16.30;57.40;;;;;;5081026;28;20492;-78
2023/03/02 03:15:58;;;;;;;3.42;3.22;;;16.30;57.60;;;;;;5080956;28;20032;-78
2023/03/02 03:18:23;;;;;;;3.00;2.80;;;16.30;57.80;;;;;;5077928;28;20477;-78
2023/03/02 03:20:49;;;;;;;3.45;3.25;;;16.20;57.80;;;;;;5086883;28;20031;-78
2023/03/02 03:23:14;;;;;;;3.58;3.33;;;16.20;57.60;;;;;;5077648;28;20024;-78
2023/03/02 03:25:40;;;;;;;3.22;2.95;;;16.20;57.70;;;;;;5076248;28;20060;-78
2023/03/02 03:28:06;;;;;;;3.25;2.95;;;16.20;57.60;;;;;;5038925;28;20513;-78
2023/03/02 03:30:31;;;;;;;2.78;2.67;;;16.30;57.50;;;;;;5049891;28;20028;-78
2023/03/02 03:32:57;;;;;;;2.92;2.72;;;16.20;57.70;;;;;;5084754;28;20077;-78
2023/03/02 03:35:22;;;;;;;2.58;2.38;;;16.20;57.60;;;;;;5087832;28;20070;-78
2023/03/02 03:37:48;;;;;;;3.30;2.88;;;16.20;57.90;;;;;;5074892;28;20032;-78
2023/03/02 03:40:14;;;;;;;3.45;2.75;;;16.20;57.80;;;;;;5086967;28;20441;-78
2023/03/02 03:42:39;;;;;;;3.35;3.13;;;16.20;57.50;;;;;;5081699;28;20020;-78
2023/03/02 03:45:07;;;;;;;4.57;3.35;;;16.20;57.80;;;;;;5087234;28;20128;-78
2023/03/02 03:47:33;;;;;;;5.78;3.00;;;16.20;57.50;;;;;;5087243;28;20036;-78
2023/03/02 03:49:58;;;;;;;3.03;2.80;;;16.10;57.70;;;;;;5081677;28;20077;-78
2023/03/02 03:52:30;;;;;;;3.78;3.15;;;16.10;57.90;;;;;;5072228;28;20444;-78
2023/03/02 03:54:58;;;;;;;3.10;2.83;;;16.20;57.70;;;;;;5059195;28;20035;-78
2023/03/02 03:57:24;;;;;;;2.83;2.63;;;16.20;57.70;;;;;;5082549;28;20048;-78
2023/03/02 03:59:50;;;;;;;3.30;3.10;;;16.10;57.50;;;;;;5059586;28;20550;-78
2023/03/02 04:02:15;;;;;;;3.10;2.90;;;16.10;58.00;;;;;;5086990;28;20028;-78
2023/03/02 04:04:41;;;;;;;2.75;2.63;;;16.10;58.00;;;;;;5082002;28;20051;-78
2023/03/02 04:07:07;;;;;;;2.92;2.72;;;16.10;57.90;;;;;;5082287;28;20459;-78
2023/03/02 04:09:36;;;;;;;2.90;2.70;;;16.10;57.70;;;;;;5088990;28;20549;-78
2023/03/02 04:12:02;;;;;;;3.13;2.92;;;16.10;57.30;;;;;;5087137;28;20063;-78
2023/03/02 04:14:28;;;;;;;3.33;3.13;;;16.10;57.60;;;;;;5064322;28;20503;-78
2023/03/02 04:16:54;;;;;;;3.17;2.97;;;16.10;57.50;;;;;;5083652;28;20089;-78
2023/03/02 04:19:19;;;;;;;2.55;2.35;;;16.10;57.60;;;;;;5087244;28;20031;-78
2023/03/02 04:21:47;;;;;;;2.75;2.60;;;16.10;57.70;;;;;;5078863;28;20028;-78
2023/03/02 04:24:13;;;;;;;3.15;2.95;;;16.10;57.90;;;;;;5085080;28;20115;-77
2023/03/02 04:26:39;;;;;;;3.17;2.97;;;16.00;57.80;;;;;;5081897;28;20120;-77
2023/03/02 04:29:05;;;;;;;2.90;2.70;;;16.10;57.40;;;;;;5079312;28;20036;-78
2023/03/02 04:31:31;;;;;;;3.03;2.70;;;16.10;57.80;;;;;;5064407;28;20078;-78
2023/03/02 04:33:57;;;;;;;2.90;2.70;;;16.10;57.00;;;;;;5090439;28;20077;-78
2023/03/02 04:36:23;;;;;;;2.40;2.30;;;16.10;57.60;;;;;;5087883;28;20093;-78
2023/03/02 04:38:48;;;;;;;2.75;2.55;;;16.10;58.00;;;;;;5052603;28;20055;-78
2023/03/02 04:41:14;;;;;;;2.90;2.70;;;16.10;57.00;;;;;;5088037;28;20034;-78
2023/03/02 04:43:40;;;;;;;2.20;2.10;;;16.10;57.20;;;;;;5088199;28;20553;-78
2023/03/02 04:46:06;;;;;;;2.50;2.40;;;16.00;57.20;;;;;;5066942;28;20111;-78
2023/03/02 04:48:31;;;;;;;2.58;2.35;;;16.00;57.40;;;;;;5060032;28;20044;-78
2023/03/02 04:50:57;;;;;;;2.80;2.50;;;16.10;57.30;;;;;;5077120;28;20040;-78
2023/03/02 04:53:22;;;;;;;2.67;2.47;;;16.00;57.00;;;;;;5088189;28;20170;-78
2023/03/02 04:55:48;;;;;;;2.40;2.20;;;16.10;57.00;;;;;;5079467;28;20032;-78
2023/03/02 04:58:14;;;;;;;2.72;2.58;;;16.00;57.20;;;;;;5086484;28;20031;-78
2023/03/02 05:00:39;;;;;;;2.70;2.50;;;16.00;57.10;;;;;;5078407;28;20026;-78
2023/03/02 05:03:05;;;;;;;2.17;2.03;;;16.00;57.40;;;;;;5083590;28;20042;-77
2023/03/02 05:05:31;;;;;;;2.90;2.70;;;16.00;57.80;;;;;;5087112;28;20059;-78
2023/03/02 05:07:59;;;;;;;2.70;2.50;;;16.00;57.40;;;;;;5086172;28;20030;-78
2023/03/02 05:10:26;;;;;;;2.38;2.28;;;16.00;57.60;;;;;;5080635;28;20086;-78
2023/03/02 05:13:01;;;;;;;2.35;2.25;;;16.00;57.60;;;;;;5075764;28;20078;-78
2023/03/02 05:15:35;;;;;;;2.30;2.20;;;16.00;57.90;;;;;;5083109;28;20115;-78
2023/03/02 05:18:01;;;;;;;2.20;2.10;;;16.00;57.80;;;;;;5080540;28;20484;-78
2023/03/02 05:20:29;;;;;;;2.60;2.40;;;16.00;57.90;;;;;;5060637;28;20036;-78
2023/03/02 05:22:58;;;;;;;2.65;2.45;;;16.00;58.00;;;;;;5063921;28;20496;-78
2023/03/02 05:25:25;;;;;;;2.03;1.92;;;16.00;58.00;;;;;;5067068;28;20165;-78
2023/03/02 05:27:51;;;;;;;2.42;2.33;;;16.00;58.40;;;;;;5087690;28;20024;-78
2023/03/02 05:30:17;;;;;;;2.20;2.10;;;16.00;58.10;;;;;;5082361;28;20024;-78
2023/03/02 05:32:43;;;;;;;2.45;2.35;;;15.90;58.60;;;;;;5061412;28;20058;-78
2023/03/02 05:35:08;;;;;;;2.47;2.28;;;15.90;58.30;;;;;;5084758;28;20031;-78
2023/03/02 05:37:34;;;;;;;2.15;2.05;;;15.90;58.40;;;;;;5055695;28;20051;-78
2023/03/02 05:40:00;;;;;;;2.58;2.38;;;15.90;58.30;;;;;;5078010;28;20070;-78
2023/03/02 05:42:25;;;;;;;2.33;2.22;;;15.90;58.40;;;;;;5089238;28;20036;-78
2023/03/02 05:44:51;;;;;;;2.15;2.05;;;15.90;58.30;;;;;;5102472;28;20032;-78
2023/03/02 05:47:16;;;;;;;2.00;1.90;;;15.90;58.60;;;;;;5080323;28;20042;-78
2023/03/02 05:49:42;;;;;;;2.60;2.40;;;15.90;58.60;;;;;;5063097;28;20024;-78
2023/03/02 05:52:08;;;;;;;2.50;2.40;;;15.90;58.20;;;;;;5091963;28;20281;-78
2023/03/02 05:54:33;;;;;;;2.13;2.03;;;15.80;58.30;;;;;;5085711;28;20027;-78
2023/03/02 05:56:59;;;;;;;2.10;2.00;;;15.80;58.50;;;;;;5075833;28;20024;-78
2023/03/02 05:59:24;;;;;;;2.90;2.35;;;15.80;58.30;;;;;;5077341;28;20037;-78
2023/03/02 06:01:53;;;;;;;2.25;2.15;;;15.90;58.20;;;;;;5071978;28;20035;-78
2023/03/02 06:04:19;;;;;;;2.65;2.22;;;15.90;58.20;;;;;;5082988;28;20058;-78
2023/03/02 06:06:44;;;;;;;2.47;2.20;;;15.90;58.10;;;;;;5080600;28;20047;-78
2023/03/02 06:09:10;;;;;;;2.20;2.10;;;15.90;58.10;;;;;;5078862;28;20150;-78
2023/03/02 06:11:36;;;;;;;2.38;2.28;;;15.90;58.10;;;;;;5082905;28;20059;-78
2023/03/02 06:14:01;;;;;;;2.40;2.30;;;15.80;58.20;;;;;;5060301;28;20048;-78
2023/03/02 06:16:27;;;;;;;2.10;1.90;;;15.80;58.40;;;;;;5080006;28;20090;-78
2023/03/02 06:18:52;;;;;;;1.77;1.67;;;15.80;58.20;;;;;;5086449;28;20528;-78
2023/03/02 06:21:18;;;;;;;2.13;2.03;;;15.80;58.10;;;;;;5062365;28;20561;-78
2023/03/02 06:23:44;;;;;;;2.00;1.90;;;15.80;58.30;;;;;;5083609;28;20028;-79
2023/03/02 06:26:10;;;;;;;3.75;1.98;;;15.80;58.80;;;;;;5089968;28;20049;-79
2023/03/02 06:28:36;;;;;;;2.30;2.10;;;15.80;59.10;;;;;;5078651;28;20039;-80
2023/03/02 06:31:01;;;;;;;1.75;1.65;;;15.80;58.80;;;;;;5082942;28;20029;-79
2023/03/02 06:33:27;;;;;;;2.55;2.35;;;15.80;58.90;;;;;;5064617;28;20491;-79
2023/03/02 06:35:53;;;;;;;3.85;2.20;;;15.80;58.00;;;;;;5081633;28;20489;-79
2023/03/02 06:38:18;;;;;;;3.50;2.45;;;15.80;57.60;;;;;;5057887;28;20062;-78
2023/03/02 06:40:44;;;;;;;2.17;2.08;;;15.80;58.50;;;;;;5085023;28;20137;-79
2023/03/02 06:43:10;;;;;;;2.53;2.40;;;15.80;58.80;;;;;;5059917;28;20020;-80
2023/03/02 06:45:36;;;;;;;1.88;1.77;;;15.80;58.70;;;;;;5083217;28;20035;-80
2023/03/02 06:48:03;;;;;;;2.55;1.70;;;15.80;58.80;;;;;;5064900;28;20033;-80
2023/03/02 06:50:29;;;;;;;2.33;2.13;;;;;;;;;;5052620;28;20036;-79
2023/03/02 06:52:54;;;;;;;2.58;2.38;;;15.90;65.20;;;;;;5053642;28;20036;-79
2023/03/02 06:55:20;;;;;;;1.90;1.80;;;15.80;58.80;;;;;;5061117;28;20032;-79
2023/03/02 06:57:46;;;;;;;1.98;1.88;;;15.80;58.60;;;;;;5061758;28;20021;-78
2023/03/02 07:00:15;;;;;;;2.35;2.15;;;15.80;58.60;;;;;;5062448;28;20021;-79
2023/03/02 07:02:42;;;;;;;2.10;2.00;;;15.80;58.80;;;;;;5048869;28;20070;-80
2023/03/02 07:05:07;;;;;;;2.28;2.17;;;15.80;58.90;;;;;;5053135;28;20107;-79
2023/03/02 07:07:33;;;;;;;1.73;1.63;;;15.80;59.10;;;;;;5056686;28;20100;-79
2023/03/02 07:09:58;;;;;;;2.00;1.90;;;15.80;59.10;;;;;;5063163;28;20297;-79
2023/03/02 07:12:24;;;;;;;2.00;1.90;;;15.80;58.90;;;;;;5046722;28;20091;-79
2023/03/02 07:14:50;;;;;;;2.25;2.15;;;15.90;59.00;;;;;;5064464;28;20032;-78
2023/03/02 07:17:15;;;;;;;2.20;2.10;;;15.80;58.90;;;;;;5069310;28;20013;-78
2023/03/02 07:19:41;;;;;;;2.13;2.03;;;15.80;58.80;;;;;;5064298;28;20495;-80
2023/03/02 07:22:06;;;;;;;2.08;1.95;;;15.70;59.50;;;;;;5063439;28;20416;-83
2023/03/02 07:24:32;;;;;;;2.13;2.03;;;15.70;59.50;;;;;;5063194;28;20040;-79
2023/03/02 07:26:58;;;;;;;3.78;1.80;;;15.70;59.70;;;;;;5059544;28;20052;-79
2023/03/02 07:29:24;;;;;;;1.83;1.73;;;15.70;59.30;;;;;;5041034;28;20028;-78
2023/03/02 07:31:55;;;;;;;1.90;1.80;;;15.70;59.30;;;;;;5009093;28;20536;-79
2023/03/02 07:34:22;;;;;;;2.30;1.70;;;15.70;59.10;;;;;;5061109;28;20017;-83
2023/03/02 07:36:48;;;;;;;2.20;2.00;;;15.80;59.10;;;;;;5066306;28;20024;-81
2023/03/02 07:39:13;;;;;;;4.68;1.88;;;15.80;59.00;;;;;;5060159;28;20033;-79
2023/03/02 07:41:39;;;;;;;2.88;1.85;;;15.80;58.60;;;;;;5070236;28;20147;-78
2023/03/02 07:44:04;;;;;;;2.03;1.92;;;15.80;59.00;;;;;;5068003;28;20029;-80
2023/03/02 07:46:30;;;;;;;2.03;1.83;;;15.70;58.60;;;;;;5048652;28;20036;-80
2023/03/02 07:48:57;;;;;;;2.00;1.90;;;15.70;59.00;;;;;;5062814;28;20513;-81
2023/03/02 07:51:23;;;;;;;1.92;1.83;;;15.70;59.60;;;;;;5082739;28;20122;-80
2023/03/02 07:53:49;;;;;;;2.80;1.83;;;15.70;59.20;;;;;;5084623;28;20590;-80
2023/03/02 07:56:14;;;;;;;2.33;1.95;;;15.70;59.30;;;;;;5089680;28;20047;-79
2023/03/02 07:58:40;;;;;;;1.85;1.75;;;15.60;59.60;;;;;;5067579;28;20118;-79
2023/03/02 08:01:06;;;;;;;3.00;2.15;;;15.70;59.20;;;;;;5084826;28;20103;-80
2023/03/02 08:03:31;;;;;;;2.05;1.90;;;15.70;59.00;;;;;;5083116;28;20028;-79
2023/03/02 08:05:57;;;;;;;2.30;1.90;;;15.70;59.20;;;;;;5080775;28;20031;-80
2023/03/02 08:08:23;;;;;;;2.33;2.13;;;15.70;58.80;;;;;;5083400;28;20035;-79
2023/03/02 08:10:48;;;;;;;2.10;2.00;;;15.70;59.00;;;;;;5091473;28;20035;-80
2023/03/02 08:13:14;;;;;;;2.15;1.65;;;15.70;59.10;;;;;;5056980;28;20032;-79
2023/03/02 08:15:39;;;;;;;2.42;2.03;;;15.60;58.90;;;;;;5082384;28;20104;-79
2023/03/02 08:18:05;;;;;;;2.53;2.20;;;15.70;58.90;;;;;;5080607;28;20025;-79
2023/03/02 08:20:31;;;;;;;2.20;2.10;;;15.60;58.90;;;;;;5087234;28;20032;-80
2023/03/02 08:22:56;;;;;;;2.10;2.00;;;15.60;58.90;;;;;;5069050;28;20407;-79
2023/03/02 08:25:22;;;;;;;2.10;2.00;;;15.60;59.00;;;;;;5078626;28;20024;-79
2023/03/02 08:27:47;;;;;;;2.00;1.90;;;15.60;59.00;;;;;;5063116;28;20028;-80
2023/03/02 08:30:14;;;;;;;1.88;1.77;;;15.70;59.00;;;;;;5062662;28;20485;-80
2023/03/02 08:32:39;;;;;;;2.08;1.98;;;15.60;59.00;;;;;;5043260;28;20038;-80
2023/03/02 08:35:05;;;;;;;1.90;1.80;;;15.60;59.10;;;;;;5082998;28;20111;-80
2023/03/02 08:37:31;;;;;;;2.45;2.35;;;15.60;59.10;;;;;;5084194;28;20135;-79
2023/03/02 08:39:56;;;;;;;3.95;2.10;;;15.70;59.00;;;;;;5085105;28;20565;-80
2023/03/02 08:42:22;;;;;;;2.83;1.90;;;15.60;59.00;;;;;;5082677;28;20038;-79
2023/03/02 08:44:48;;;;;;;2.47;1.90;;;15.60;59.20;;;;;;5077398;28;20025;-80
2023/03/02 08:47:13;;;;;;;2.28;2.17;;;15.70;59.20;;;;;;5082114;28;20036;-76
2023/03/02 08:49:39;;;;;;;2.60;2.40;;;15.70;59.10;;;;;;5083403;28;20029;-75
2023/03/02 08:52:05;;;;;;;2.65;1.90;;;15.60;59.10;;;;;;5079016;28;20516;-76
2023/03/02 08:54:33;;;;;;;2.13;2.03;;;15.60;59.10;;;;;;5091189;28;20039;-75
2023/03/02 08:56:59;;;;;;;1.85;1.75;;;15.70;59.10;;;;;;5072994;28;20718;-75
2023/03/02 08:59:24;;;;;;;2.05;1.95;;;15.90;58.80;;;;;;5078145;28;20048;-75
2023/03/02 09:01:50;;;;;;;1.65;1.55;;;15.90;58.70;;;;;;5089084;28;20020;-76
2023/03/02 09:04:15;;;;;;;1.95;1.85;;;15.80;58.90;;;;;;5085670;28;20028;-75
2023/03/02 09:06:42;;;;;;;1.65;1.55;;;15.80;58.90;;;;;;5083204;28;20019;-75
2023/03/02 09:09:08;;;;;;;2.03;1.83;;;15.80;59.00;;;;;;5087043;28;20106;-75
2023/03/02 09:11:34;;;;;;;2.00;1.90;;;15.80;58.90;;;;;;5089531;28;20095;-75
2023/03/02 09:13:59;;;;;;;2.50;2.20;;;15.90;58.80;;;;;;5086339;28;20501;-75
2023/03/02 09:16:25;;;;;;;2.20;2.00;;;15.90;58.60;;;;;;5083403;28;20033;-75
2023/03/02 09:18:51;;;;;;;2.00;1.90;;;16.00;58.40;;;;;;5072545;28;20040;-75
2023/03/02 09:21:16;;;;;;;1.83;1.67;;;16.00;58.40;;;;;;5091827;28;20479;-75
2023/03/02 09:23:42;;;;;;;2.03;1.70;;;16.10;58.30;;;;;;5062964;28;20056;-75
2023/03/02 09:26:08;;;;;;;1.92;1.83;;;16.20;58.30;;;;;;5086255;28;20031;-75
2023/03/02 09:28:34;;;;;;;2.08;1.73;;;16.20;58.20;;;;;;5083579;28;20485;-75
2023/03/02 09:31:02;;;;;;;1.55;1.45;;;16.10;58.30;;;;;;5083513;28;20028;-75
2023/03/02 09:33:29;;;;;;;1.60;1.50;;;16.10;58.20;;;;;;5089914;28;20055;-75
2023/03/02 09:35:54;;;;;;;1.75;1.65;;;16.10;58.30;;;;;;5087538;28;20024;-75
2023/03/02 09:38:20;;;;;;;1.50;1.40;;;16.10;58.50;;;;;;5072546;28;20016;-75
2023/03/02 09:40:54;;;;;;;1.48;1.40;;;16.20;58.50;;;;;;5085205;28;20035;-75
2023/03/02 09:43:35;;;;;;;;;;;16.10;58.40;;;;;;5069296;28;20023;-75
2023/03/02 09:46:22;;;;;;;1.50;1.40;;;16.20;58.00;;;;;;5064761;28;19919;-75
2023/03/02 09:49:12;;;;;;;1.85;1.50;;;16.20;57.70;;;;;;5070014;28;20033;-75
2023/03/02 09:51:58;;;;;;;1.45;1.35;;;16.30;57.70;;;;;;5074062;28;20054;-75
2023/03/02 09:54:24;;;;;;;1.30;1.20;;;16.30;57.60;;;;;;5081748;28;20496;-75
2023/03/02 09:56:53;;;;;;;1.30;1.25;;;16.30;57.70;;;;;;5071492;28;20059;-75
2023/03/02 09:59:38;;;;;;;1.30;1.20;;;16.30;57.90;;;;;;5069978;28;20382;-75
2023/03/02 10:02:27;;;;;;;1.55;1.45;;;16.30;57.90;;;;;;5050197;28;20078;-75
2023/03/02 10:04:53;;;;;;;1.92;1.60;;;16.30;58.00;;;;;;5065914;28;20508;-75
2023/03/02 10:07:28;;;;;;;1.98;1.23;;;16.30;58.10;;;;;;5068585;28;20031;-75
2023/03/02 10:09:56;;;;;;;1.10;1.10;;;16.30;58.10;;;;;;5067013;28;20020;-75
2023/03/02 10:12:43;;;;;;;1.30;1.23;;;16.30;58.30;;;;;;5057244;28;20524;-75
2023/03/02 10:15:12;;;;;;;1.30;1.20;;;16.30;58.30;;;;;;5081013;28;20055;-75
2023/03/02 10:18:00;;;;;;;1.23;1.15;;;16.30;58.40;;;;;;5081036;28;20070;-75
2023/03/02 10:20:40;;;;;;;1.40;1.30;;;16.40;58.40;;;;;;5067340;28;20477;-75
2023/03/02 10:23:30;;;;;;;1.60;1.50;;;16.40;58.30;;;;;;5087205;28;20024;-75
2023/03/02 10:26:35;;;;;;;1.38;1.30;;;16.40;58.30;;;;;;5083417;28;20035;-75
2023/03/02 10:29:30;;;;;;;1.25;1.17;;;16.40;58.40;;;;;;5086988;28;20111;-76
2023/03/02 10:32:15;;;;;;;1.35;1.10;;;16.40;58.30;;;;;;5067027;28;20040;-75
2023/03/02 10:34:41;;;;;;;1.40;1.30;;;16.40;58.30;;;;;;5080342;28;20040;-75
2023/03/02 10:37:18;;;;;;;1.50;1.40;;;16.40;58.30;;;;;;5080467;28;20020;-75
2023/03/02 10:39:43;;;;;;;1.27;1.17;;;16.40;58.30;;;;;;5097269;28;20023;-75
2023/03/02 10:42:34;;;;;;;2.95;1.33;;;16.40;58.20;;;;;;5086990;28;20025;-75
2023/03/02 10:45:22;;;;;;;1.00;1.00;;;16.50;58.30;;;;;;5074787;28;20404;-75
2023/03/02 10:48:09;;;;;;;4.40;4.10;;;16.50;58.20;;;;;;5061719;28;20040;-77
2023/03/02 10:50:35;;;;;;;6.32;5.82;;;16.30;55.70;;;;;;5061296;28;20035;-76
2023/03/02 10:53:01;;;;;;;6.20;5.65;;;16.30;55.80;;;;;;5081306;28;20123;-76
2023/03/02 10:55:27;;;;;;;4.75;4.45;;;16.30;57.20;;;;;;5079871;28;20393;-76
2023/03/02 10:58:04;;;;;;;3.70;3.50;;;16.30;58.10;;;;;;5086975;28;20067;-76
2023/03/02 11:00:30;;;;;;;3.63;3.33;;;16.30;58.00;;;;;;5085724;28;20047;-76
2023/03/02 11:02:59;;;;;;;3.78;3.38;;;16.40;57.10;;;;;;5085458;28;20497;-76
2023/03/02 11:05:35;;;;;;;3.00;2.80;;;16.40;56.90;;;;;;5085734;28;20489;-74
2023/03/02 11:08:03;;;;;;;2.90;2.70;;;16.40;57.30;;;;;;5066412;28;20439;-75
2023/03/02 11:10:35;;;;;;;2.60;2.50;;;16.40;57.20;;;;;;5061277;28;20028;-75
2023/03/02 11:13:01;;;;;;;3.67;2.60;;;16.40;57.30;;;;;;5053549;28;20099;-75
2023/03/02 11:15:27;;;;;;;2.47;2.38;;;16.50;57.40;;;;;;5088636;28;20027;-75
2023/03/02 11:17:59;;;;;;;3.55;2.70;;;16.50;57.50;;;;;;5084203;28;20405;-75
2023/03/02 11:20:31;;;;;;;2.20;2.10;;;16.50;57.50;;;;;;5056844;28;20024;-75
2023/03/02 11:23:20;;;;;;;2.85;2.65;;;16.50;57.50;;;;;;5047933;28;20756;-75
2023/03/02 11:25:52;;;;;;;2.72;2.53;;;16.50;57.50;;;;;;5058775;28;20155;-75
2023/03/02 11:28:28;;;;;;;2.30;2.10;;;16.50;57.70;;;;;;5057463;28;20024;-75
2023/03/02 11:30:55;;;;;;;2.30;2.17;;;16.50;57.60;;;;;;5094739;28;20012;-75
2023/03/02 11:33:34;;;;;;;2.00;1.83;;;16.50;57.50;;;;;;5067092;28;20024;-75
2023/03/02 11:36:16;;;;;;;3.38;2.28;;;16.50;57.60;;;;;;5071799;28;20442;-75
2023/03/02 11:38:53;;;;;;;2.05;1.95;;;16.50;57.60;;;;;;5069969;28;20115;-75
2023/03/02 11:41:29;;;;;;;2.05;1.95;;;16.50;57.50;;;;;;5086201;28;20055;-76
2023/03/02 11:43:56;;;;;;;2.22;2.08;;;16.50;57.60;;;;;;5066473;28;20036;-76
2023/03/02 11:46:23;;;;;;;1.85;1.75;;;16.50;57.70;;;;;;5053823;28;20435;-75
2023/03/02 11:48:50;;;;;;;1.70;1.60;;;16.50;57.70;;;;;;5026755;28;20040;-76
2023/03/02 11:51:22;;;;;;;1.85;1.75;;;16.60;57.80;;;;;;5035185;28;20077;-76
2023/03/02 11:54:21;;;;;;;1.70;1.60;;;16.50;57.80;;;;;;5056265;28;20026;-75
2023/03/02 11:56:47;;;;;;;1.65;1.55;;;16.60;57.60;;;;;;5038261;28;20017;-75
2023/03/02 11:59:16;;;;;;;1.95;1.85;;;16.60;57.70;;;;;;5045571;28;20029;-75
2023/03/02 12:01:42;;;;;;;1.75;1.65;;;16.60;57.70;;;;;;5044842;28;20057;-75
2023/03/02 12:04:32;;;;;;;1.58;1.48;;;16.60;57.60;;;;;;5031434;28;20504;-76
2023/03/02 12:07:02;;;;;;;1.63;1.52;;;16.60;57.80;;;;;;5040021;28;20433;-75
2023/03/02 12:09:34;;;;;;;1.92;1.83;;;16.60;57.70;;;;;;5056227;28;20024;-75
2023/03/02 12:12:18;;;;;;;1.90;1.80;;;16.60;57.70;;;;;;5049658;28;20037;-75
2023/03/02 12:14:43;;;;;;;2.00;1.90;;;16.60;57.70;;;;;;5064984;28;20029;-75
2023/03/02 12:17:26;;;;;;;1.85;1.75;;;16.60;57.70;;;;;;5059054;28;20043;-75
2023/03/02 12:20:20;;;;;;;2.55;1.63;;;16.60;57.90;;;;;;5061154;28;20028;-76
2023/03/02 12:22:45;;;;;;;1.77;1.67;;;16.60;57.80;;;;;;5064045;28;20055;-76
2023/03/02 12:25:17;;;;;;;2.50;2.30;;;16.60;58.40;;;;;;5044274;28;20478;-76
2023/03/02 12:27:43;;;;;;;2.97;2.00;;;16.60;58.40;;;;;;5071607;28;20028;-74
2023/03/02 12:30:14;;;;;;;2.10;2.00;;;16.60;59.30;;;;;;5062594;28;20512;-74
2023/03/02 12:32:40;;;;;;;2.10;2.00;;;16.60;59.10;;;;;;5063898;28;20094;-75
2023/03/02 12:35:06;;;;;;;3.15;2.17;;;16.60;59.30;;;;;;5068422;28;20020;-75
2023/03/02 12:37:52;;;;;;;2.60;2.35;;;16.60;59.00;;;;;;5049556;28;20028;-74
2023/03/02 12:40:24;;;;;;;2.83;2.72;;;16.60;59.50;;;;;;5058947;28;20016;-73
2023/03/02 12:43:27;;;;;;;2.53;2.33;;;16.60;59.70;;;;;;5069604;28;20028;-73
2023/03/02 12:46:26;;;;;;;2.38;2.28;;;16.60;59.20;;;;;;5064239;28;20487;-76
2023/03/02 12:49:03;;;;;;;2.60;2.40;;;16.60;59.60;;;;;;5056800;28;20041;-74
2023/03/02 12:51:42;;;;;;;2.20;2.10;;;16.70;59.70;;;;;;5060358;28;20047;-74
2023/03/02 12:54:16;;;;;;;1.90;1.80;;;16.60;60.10;;;;;;5050732;28;20033;-74
2023/03/02 12:56:41;;;;;;;2.53;2.28;;;16.70;60.00;;;;;;5057425;28;20028;-73